Latest Weather Observations for Lockhart River

IDQ60801

Issued at 8:32 pm EST Sunday 28 August 2016 (issued every 30 minutes, with the page automatically refreshed every 10 minutes)

About weather observations | Map of weather stations | Latest weather observations for QLD | Other Formats
Station Details ID: 028008 Name: LOCKHART RIVER AIRPORT Lat: -12.79 Lon: 143.30 Height: 18.5 m
Data from the previous 72 hours. | See also: Recent months at Lockhart River
Date/Time
EST
Temp
°C
App
Temp
°C
Dew
Point
°C
Rel
Hum
%
Delta-T
°C
Wind Press
QNH
hPa
Press
MSL
hPa
Rain since
9am
mm
Dir  Spd
km/h
Gust
km/h
Spd
kts
Gust
kts
28/08:30pm 24.3 23.2 18.7 71 3.5 ESE 22 32 12 17 1016.7 1016.7 0.0
28/08:00pm 24.3 23.8 18.7 71 3.5 ESE 19 28 10 15 1016.2 1016.2 0.0
28/07:30pm 24.2 23.8 18.8 72 3.4 ESE 19 32 10 17 1016.1 1016.1 0.0
28/07:00pm 24.3 23.1 18.5 70 3.7 ESE 22 32 12 17 1015.8 1015.8 0.0
28/06:30pm 24.3 23.2 18.7 71 3.6 ESE 22 35 12 19 1015.6 1015.6 0.0
28/06:00pm 24.6 22.9 19.0 71 3.6 ESE 26 39 14 21 1015.4 1015.4 0.0
28/05:30pm 24.8 22.8 19.2 71 3.6 SE 28 39 15 21 1015.1 1015.1 0.0
28/05:00pm 25.0 24.1 19.1 70 3.8 SE 22 33 12 18 1015.1 1015.1 0.0
28/04:30pm 25.0 24.3 19.6 72 3.5 SE 22 32 12 17 1014.9 1014.9 0.0
28/04:00pm 25.4 25.0 18.8 67 4.2 ESE 19 28 10 15 1014.7 1014.7 0.0
28/03:30pm 26.3 24.9 18.9 63 4.7 ESE 24 35 13 19 1014.7 1014.7 0.0
28/03:00pm 27.7 25.7 19.2 60 5.5 ESE 28 39 15 21 1014.7 1014.7 0.0
28/02:30pm 26.5 24.4 18.9 63 4.9 ESE 28 35 15 19 1014.9 1014.9 0.0
28/02:00pm 26.2 24.2 19.1 65 4.6 ESE 28 41 15 22 1015.4 1015.4 0.0
28/01:30pm 26.1 25.4 19.5 67 4.3 ESE 22 35 12 19 1015.9 1015.9 0.0
28/01:00pm 25.8 25.2 19.7 69 3.9 ESE 22 33 12 18 1016.3 1016.3 0.0
28/12:30pm 26.0 25.3 19.4 67 4.3 ESE 22 35 12 19 1016.6 1016.6 0.0
28/12:00pm 26.1 25.3 20.0 69 4.0 ESE 24 35 13 19 1016.9 1016.9 0.0
28/11:30am 26.4 25.3 19.5 66 4.5 ESE 24 35 13 19 1017.5 1017.5 0.0
28/11:00am 26.0 24.9 19.4 67 4.2 ESE 24 39 13 21 1017.9 1017.9 0.0
28/10:30am 26.8 25.7 21.1 71 3.8 ESE 28 41 15 22 1018.1 1018.1 0.0
28/10:00am 26.3 26.4 21.1 73 3.4 ESE 22 32 12 17 1018.3 1018.2 0.0
28/09:30am 25.7 25.0 20.3 72 3.5 ESE 24 39 13 21 1018.1 1018.1 0.0
28/09:00am 25.5 26.2 21.2 77 2.8 ESE 19 33 10 18 1017.9 1017.9 0.2
28/08:30am 25.2 25.1 20.7 76 2.9 ESE 22 32 12 17 1017.6 1017.6 0.2
28/08:00am 24.9 25.6 21.2 80 2.4 ESE 19 30 10 16 1017.3 1017.3 0.2
28/07:30am 24.6 25.6 21.1 81 2.3 ESE 17 30 9 16 1017.1 1017.1 0.2
28/07:00am 24.3 25.1 21.4 84 1.9 SE 19 26 10 14 1016.5 1016.5 0.2
28/06:30am 24.5 25.2 21.2 82 2.2 ESE 19 28 10 15 1016.1 1016.1 0.2
28/06:00am 24.5 25.6 21.2 82 2.2 ESE 17 28 9 15 1015.8 1015.8 0.2
28/05:30am 24.4 25.5 21.3 83 2.0 ESE 17 28 9 15 1015.4 1015.4 0.2
28/05:00am 24.4 24.9 20.9 81 2.3 SE 19 30 10 16 1015.1 1015.1 0.2
28/04:30am 24.3 25.3 21.0 82 2.2 ESE 17 26 9 14 1014.9 1014.9 0.2
28/04:00am 24.3 24.9 21.0 82 2.2 SE 19 26 10 14 1014.9 1014.9 0.2
28/03:30am 24.2 25.0 21.3 84 1.9 SE 19 30 10 16 1014.7 1014.7 0.2
28/03:00am 24.1 25.4 21.6 86 1.7 SE 17 22 9 12 1014.9 1014.9 0.2
28/02:30am 24.1 24.7 21.4 85 1.8 SE 20 30 11 16 1015.0 1015.0 0.2
28/02:00am 23.9 25.7 21.8 88 1.4 SE 15 20 8 11 1015.2 1015.2 0.2
28/01:30am 23.6 25.9 22.0 91 1.1 SE 13 19 7 10 1015.5 1015.5 0.2
28/01:00am 23.4 24.9 22.0 92 0.9 SE 17 20 9 11 1015.6 1015.6 0.2
28/12:30am 24.2 25.3 21.3 84 1.9 SE 17 24 9 13 1015.8 1015.8 0.0
28/12:00am 24.8 24.9 21.1 80 2.4 ESE 22 32 12 17 1016.2 1016.2 0.0
 
Date/Time
EST
Temp
°C
App
Temp
°C
Dew
Point
°C
Rel
Hum
%
Delta-T
°C
Wind Press
QNH
hPa
Press
MSL
hPa
Rain since
9am
mm
Dir  Spd
km/h
Gust
km/h
Spd
kts
Gust
kts
27/11:30pm 24.8 25.6 21.3 81 2.3 ESE 19 28 10 15 1016.5 1016.5 0.0
27/11:00pm 24.9 25.4 21.2 80 2.4 ESE 20 28 11 15 1016.6 1016.6 0.0
27/10:30pm 24.9 25.4 21.2 80 2.4 ESE 20 28 11 15 1016.7 1016.7 0.0
27/10:05pm 24.9 25.8 21.6 82 2.2 ESE 19 28 10 15 1016.6 1016.6 0.0
27/10:00pm 24.9 25.6 21.6 82 2.2 SE 20 28 11 15 1016.5 1016.5 0.0
27/09:30pm 24.8 25.7 21.5 82 2.2 SE 19 26 10 14 1016.5 1016.5 0.0
27/09:00pm 24.7 25.5 21.4 82 2.2 ESE 19 28 10 15 1016.5 1016.5 0.0
27/08:30pm 24.6 25.2 21.3 82 2.2 ESE 20 28 11 15 1016.3 1016.3 0.0
27/08:00pm 24.7 24.6 21.4 82 2.2 ESE 24 32 13 17 1016.0 1016.0 0.0
27/07:30pm 24.7 25.4 21.2 81 2.3 SE 19 30 10 16 1015.8 1015.8 0.0
27/07:00pm 24.8 25.6 21.3 81 2.3 ESE 19 28 10 15 1015.6 1015.6 0.0
27/06:30pm 24.9 25.6 21.2 80 2.4 ESE 19 26 10 14 1015.3 1015.3 0.0
27/06:23pm 24.9 25.4 21.2 80 2.4 SE 20 26 11 14 1015.2 1015.2 0.0
27/06:00pm 25.2 24.9 21.1 78 2.7 SE 24 33 13 18 1015.1 1015.1 0.0
27/05:30pm 25.5 26.0 21.2 77 2.8 SE 20 28 11 15 1015.0 1015.0 0.0
27/05:00pm 25.7 27.1 21.1 76 3.0 ESE 15 24 8 13 1014.8 1014.8 0.0
27/04:30pm 25.9 25.8 20.7 73 3.4 SE 22 30 12 16 1014.7 1014.7 0.0
27/04:00pm 26.1 25.8 21.1 74 3.3 ESE 24 32 13 17 1014.6 1014.6 0.0
27/03:30pm 26.2 26.5 20.8 72 3.6 SE 20 30 11 16 1014.5 1014.5 0.0
27/03:00pm 26.0 26.4 20.6 72 3.5 SE 19 24 10 13 1014.8 1014.8 0.0
27/02:30pm 25.9 26.2 20.7 73 3.4 ESE 20 32 11 17 1015.0 1015.0 0.0
27/02:00pm 26.7 26.1 20.5 69 4.1 SE 24 30 13 16 1015.2 1015.2 0.0
27/01:30pm 26.2 26.0 20.5 71 3.7 ESE 22 28 12 15 1015.4 1015.4 0.0
27/01:00pm 26.7 26.7 21.0 71 3.8 ESE 22 30 12 16 1015.7 1015.7 0.0
27/12:30pm 26.6 26.6 20.9 71 3.8 SE 22 33 12 18 1016.0 1016.0 0.0
27/12:00pm 27.0 26.5 21.5 72 3.7 ESE 26 35 14 19 1016.2 1016.2 0.0
27/11:30am 27.4 26.8 21.2 69 4.1 ESE 26 39 14 21 1016.4 1016.4 0.0
27/11:00am 26.7 26.7 21.0 71 3.8 ESE 22 33 12 18 1016.7 1016.7 0.0
27/10:30am 27.1 26.7 21.6 72 3.7 ESE 26 35 14 19 1016.7 1016.7 0.0
27/10:00am 27.2 28.0 22.4 75 3.2 ESE 22 32 12 17 1016.6 1016.6 0.0
27/09:46am 26.5 26.7 22.1 77 3.0 ESE 24 35 13 19 1016.5 1016.5 0.0
27/09:30am 26.2 26.8 22.1 78 2.7 SE 22 32 12 17 1016.6 1016.6 0.0
27/09:00am 25.8 27.9 23.1 85 1.8 SE 17 30 9 16 1016.5 1016.5 0.0
27/08:53am 25.2 28.6 23.3 89 1.3 SSE 11 19 6 10 1016.4 1016.4 0.0
27/08:31am 24.0 27.5 22.8 93 0.8 SSE 9 13 5 7 1016.3 1016.3 0.0
27/08:30am 24.0 27.5 22.8 93 0.8 SSE 9 13 5 7 1016.3 1016.3 0.0
27/08:00am 23.7 27.3 23.0 96 0.5 SSE 9 11 5 6 1016.2 1016.2 0.0
27/07:30am 22.9 26.6 22.6 98 0.2 SE 7 9 4 5 1016.0 1016.0 0.0
27/07:03am 22.4 27.2 22.2 99 0.1 CALM 0 0 0 0 1015.7 1015.7 0.0
27/07:00am 22.4 27.2 22.1 98 0.2 CALM 0 0 0 0 1015.7 1015.7 0.0
27/06:34am 22.3 27.0 22.0 98 0.2 CALM 0 6 0 3 1015.2 1015.2 0.0
27/06:30am 22.3 26.6 22.0 98 0.2 E 2 7 1 4 1015.2 1015.2 0.0
27/06:00am 22.3 27.0 22.0 98 0.2 CALM 0 7 0 4 1014.8 1014.8 0.0
27/05:30am 21.7 26.1 21.4 98 0.2 CALM 0 0 0 0 1014.6 1014.6 0.0
27/05:00am 22.1 26.8 21.9 99 0.1 CALM 0 0 0 0 1014.3 1014.3 0.0
27/04:30am 21.4 25.7 21.1 98 0.2 CALM 0 0 0 0 1014.3 1014.3 0.0
27/04:26am 21.4 25.7 21.1 98 0.2 CALM 0 0 0 0 1014.2 1014.2 0.0
27/04:00am 21.1 25.2 20.8 98 0.2 CALM 0 0 0 0 1014.3 1014.3 0.0
27/03:30am 21.6 25.9 21.1 97 0.3 CALM 0 0 0 0 1014.3 1014.3 0.0
27/03:09am 21.7 26.0 21.2 97 0.3 CALM 0 0 0 0 1014.4 1014.4 0.0
27/03:00am 21.8 26.2 21.3 97 0.3 CALM 0 0 0 0 1014.4 1014.4 0.0
27/02:30am 22.2 26.8 21.7 97 0.3 CALM 0 0 0 0 1014.4 1014.4 0.0
27/02:00am 22.1 26.6 21.6 97 0.3 CALM 0 0 0 0 1014.6 1014.6 0.0
27/01:30am 22.1 26.6 21.6 97 0.3 CALM 0 0 0 0 1014.9 1014.9 0.0
27/01:00am 22.2 26.8 21.7 97 0.3 CALM 0 0 0 0 1015.2 1015.2 0.0
27/12:30am 22.2 25.6 21.7 97 0.3 WNW 6 6 3 3 1015.4 1015.4 0.0
27/12:00am 22.5 26.8 22.0 97 0.3 WNW 2 9 1 5 1015.4 1015.4 0.0
 
Date/Time
EST
Temp
°C
App
Temp
°C
Dew
Point
°C
Rel
Hum
%
Delta-T
°C
Wind Press
QNH
hPa
Press
MSL
hPa
Rain since
9am
mm
Dir  Spd
km/h
Gust
km/h
Spd
kts
Gust
kts
26/11:30pm 22.9 26.7 22.4 97 0.3 SE 6 7 3 4 1015.3 1015.3 0.0
26/11:23pm 22.9 26.5 22.4 97 0.3 ESE 7 9 4 5 1015.3 1015.3 0.0
26/11:00pm 22.4 26.7 21.9 97 0.3 ESE 2 6 1 3 1014.9 1014.9 0.0
26/10:30pm 22.3 26.8 21.5 95 0.5 CALM 0 0 0 0 1014.2 1014.2 0.0
26/10:00pm 22.4 27.0 21.7 96 0.5 CALM 0 0 0 0 1014.4 1014.4 0.0
26/09:37pm 22.9 27.7 22.2 96 0.5 CALM 0 0 0 0 1014.3 1014.3 0.0
26/09:30pm 23.0 27.8 22.2 95 0.5 CALM 0 0 0 0 1014.3 1014.3 0.0
26/09:06pm 23.6 27.6 22.8 95 0.5 WNW 6 6 3 3 1014.3 1014.3 0.0
26/09:00pm 23.3 27.0 22.3 94 0.7 NNW 6 7 3 4 1014.3 1014.3 0.0
26/08:30pm 23.8 28.9 22.6 93 0.8 CALM 0 0 0 0 1013.9 1013.9 0.0
26/08:00pm 24.1 29.0 22.4 90 1.1 CALM 0 0 0 0 1013.4 1013.4 0.0
26/07:30pm 25.0 29.5 22.9 88 1.4 ENE 4 7 2 4 1013.0 1013.0 0.0
26/07:00pm 25.5 29.2 22.6 84 2.0 ENE 7 9 4 5 1012.5 1012.5 0.0
26/06:30pm 26.1 29.7 22.4 80 2.5 ENE 7 11 4 6 1012.0 1012.0 0.0
26/06:00pm 26.8 30.0 22.4 77 3.0 E 9 15 5 8 1011.5 1011.5 0.0
26/05:30pm 27.6 30.3 22.1 72 3.7 E 11 17 6 9 1011.4 1011.4 0.0
26/05:00pm 27.8 30.4 22.7 74 3.5 ENE 13 19 7 10 1011.2 1011.2 0.0
26/04:30pm 27.6 29.5 22.8 75 3.3 ENE 17 22 9 12 1011.3 1011.3 0.0
26/04:00pm 28.3 30.2 22.8 72 3.7 E 17 26 9 14 1010.9 1010.9 0.0
26/03:30pm 29.1 31.6 23.8 73 3.7 ENE 17 22 9 12 1010.7 1010.7 0.0
26/03:00pm 27.9 30.0 23.1 75 3.3 E 17 28 9 15 1010.9 1010.9 0.0
26/02:30pm 29.3 31.1 22.5 67 4.6 ENE 17 24 9 13 1011.2 1011.2 0.0
26/02:00pm 29.9 31.9 22.9 66 4.8 E 17 24 9 13 1011.3 1011.3 0.0
26/01:30pm 29.3 30.9 22.8 68 4.4 E 19 28 10 15 1011.8 1011.8 0.0
26/01:00pm 29.9 32.5 23.3 67 4.5 E 15 20 8 11 1012.1 1012.1 0.0
26/12:30pm 29.7 32.3 22.7 66 4.8 E 13 20 7 11 1012.5 1012.5 0.0
26/12:00pm 29.5 32.0 22.5 66 4.8 SE 13 24 7 13 1012.9 1012.9 0.0
26/11:30am 29.5 31.8 22.7 67 4.6 ESE 15 22 8 12 1013.2 1013.2 0.0
26/11:00am 29.7 32.9 22.4 65 5.0 ESE 9 17 5 9 1013.7 1013.7 0.0
26/10:30am 28.1 31.1 22.6 72 3.7 S 11 15 6 8 1014.1 1014.1 0.0
26/10:00am 28.1 32.5 22.8 73 3.6 SSE 4 7 2 4 1014.4 1014.4 0.0
26/09:30am 27.3 31.4 22.9 77 3.0 SSE 6 11 3 6 1014.5 1014.5 0.0
26/09:00am 26.7 30.8 23.0 80 2.5 SSE 6 13 3 7 1014.5 1014.5 0.0
26/08:30am 25.7 29.9 22.4 82 2.2 SSE 4 9 2 5 1014.3 1014.3 0.0
26/08:00am 24.2 29.5 23.0 93 0.8 CALM 0 2 0 1 1014.0 1014.0 0.0
26/07:47am 23.9 29.2 23.0 95 0.6 CALM 0 0 0 0 1014.1 1014.1 0.0
26/07:35am 23.6 28.8 22.9 96 0.5 CALM 0 0 0 0 1014.0 1014.0 0.0
26/07:30am 23.4 28.5 22.7 96 0.5 CALM 0 0 0 0 1014.0 1014.0 0.0
26/07:00am 23.5 28.7 22.8 96 0.5 CALM 0 0 0 0 1013.5 1013.5 0.0
26/06:30am 23.5 28.7 22.8 96 0.5 CALM 0 0 0 0 1013.2 1013.2 0.0
26/06:00am 23.5 28.7 22.8 96 0.5 CALM 0 0 0 0 1012.7 1012.7 0.0
26/05:30am 23.7 28.9 22.9 95 0.5 CALM 0 0 0 0 1012.5 1012.5 0.0
26/05:00am 23.6 28.8 22.8 95 0.5 CALM 0 0 0 0 1012.3 1012.3 0.0
26/04:30am 23.7 28.9 22.9 95 0.5 CALM 0 0 0 0 1012.4 1012.4 0.0
26/04:00am 23.9 29.1 22.9 94 0.7 CALM 0 0 0 0 1012.2 1012.2 0.0
26/03:30am 23.9 29.1 22.9 94 0.7 CALM 0 4 0 2 1012.2 1012.2 0.0
26/03:00am 23.9 29.2 23.0 95 0.6 CALM 0 0 0 0 1012.1 1012.1 0.0
26/02:30am 23.9 29.3 23.2 96 0.5 CALM 0 0 0 0 1012.2 1012.2 0.0
26/02:00am 23.7 29.0 23.0 96 0.5 CALM 0 0 0 0 1012.4 1012.4 0.0
26/01:30am 23.5 28.7 22.8 96 0.5 CALM 0 0 0 0 1012.2 1012.2 0.0
26/01:00am 23.6 28.8 22.9 96 0.5 CALM 0 0 0 0 1012.3 1012.3 0.0
26/12:30am 23.5 28.6 22.7 95 0.5 CALM 0 0 0 0 1012.5 1012.5 0.0
26/12:00am 23.5 27.5 22.7 95 0.5 NW 6 7 3 4 1012.7 1012.7 0.0
 
Date/Time
EST
Temp
°C
App
Temp
°C
Dew
Point
°C
Rel
Hum
%
Delta-T
°C
Wind Press
QNH
hPa
Press
MSL
hPa
Rain since
9am
mm
Dir  Spd
km/h
Gust
km/h
Spd
kts
Gust
kts
25/11:30pm 23.6 28.0 22.8 95 0.5 WNW 4 7 2 4 1012.9 1012.9 0.0
25/11:00pm 23.7 28.8 22.7 94 0.7 CALM 0 0 0 0 1012.8 1012.8 0.0
25/10:30pm 24.0 29.3 23.0 94 0.7 CALM 0 0 0 0 1012.6 1012.6 0.0
25/10:00pm 23.8 29.1 23.0 95 0.5 CALM 0 0 0 0 1012.6 1012.6 0.0
25/09:30pm 23.6 27.4 22.8 95 0.5 NW 7 9 4 5 1012.4 1012.4 0.0
25/09:00pm 23.5 28.6 22.7 95 0.5 CALM 0 0 0 0 1011.8 1011.8 0.0

Other Formats:

Comma delimited format used in spreadsheet applications
http://www.bom.gov.au/fwo/IDQ60801/IDQ60801.94186.axf

JavaScript Object Notation format (JSON) in row-major order
http://www.bom.gov.au/fwo/IDQ60801/IDQ60801.94186.json